sensor_id;sensor_type;location;lat;lon;timestamp;P1;durP1;ratioP1;P2;durP2;ratioP2
27612;SDS011;15036;48.094;-1.690;2022-10-23T00:01:33;5.47;;;1.42;;
27612;SDS011;15036;48.094;-1.690;2022-10-23T00:04:04;2.95;;;1.17;;
27612;SDS011;15036;48.094;-1.690;2022-10-23T00:06:32;3.75;;;1.20;;
27612;SDS011;15036;48.094;-1.690;2022-10-23T00:08:58;4.60;;;1.45;;
27612;SDS011;15036;48.094;-1.690;2022-10-23T00:11:26;4.32;;;1.33;;
27612;SDS011;15036;48.094;-1.690;2022-10-23T00:13:54;2.67;;;1.15;;
27612;SDS011;15036;48.094;-1.690;2022-10-23T00:16:21;2.95;;;1.40;;
27612;SDS011;15036;48.094;-1.690;2022-10-23T00:18:47;4.13;;;1.35;;
27612;SDS011;15036;48.094;-1.690;2022-10-23T00:21:13;4.75;;;1.52;;
27612;SDS011;15036;48.094;-1.690;2022-10-23T00:23:40;5.22;;;1.40;;
27612;SDS011;15036;48.094;-1.690;2022-10-23T00:26:06;4.57;;;1.40;;
27612;SDS011;15036;48.094;-1.690;2022-10-23T00:28:35;4.28;;;1.30;;
27612;SDS011;15036;48.094;-1.690;2022-10-23T00:31:01;3.22;;;1.38;;
27612;SDS011;15036;48.094;-1.690;2022-10-23T00:33:27;2.45;;;1.10;;
27612;SDS011;15036;48.094;-1.690;2022-10-23T00:35:53;3.85;;;1.30;;
27612;SDS011;15036;48.094;-1.690;2022-10-23T00:38:19;4.88;;;1.50;;
27612;SDS011;15036;48.094;-1.690;2022-10-23T00:40:44;5.75;;;1.42;;
27612;SDS011;15036;48.094;-1.690;2022-10-23T00:43:21;3.97;;;1.30;;
27612;SDS011;15036;48.094;-1.690;2022-10-23T00:45:49;3.30;;;1.38;;
27612;SDS011;15036;48.094;-1.690;2022-10-23T00:48:14;3.10;;;1.25;;
27612;SDS011;15036;48.094;-1.690;2022-10-23T00:50:41;4.03;;;1.48;;
27612;SDS011;15036;48.094;-1.690;2022-10-23T00:53:07;5.03;;;1.30;;
27612;SDS011;15036;48.094;-1.690;2022-10-23T00:55:34;3.40;;;1.30;;
27612;SDS011;15036;48.094;-1.690;2022-10-23T00:58:02;3.92;;;1.40;;
27612;SDS011;15036;48.094;-1.690;2022-10-23T01:03:20;4.53;;;1.30;;
27612;SDS011;15036;48.094;-1.690;2022-10-23T01:06:12;3.45;;;1.55;;
27612;SDS011;15036;48.094;-1.690;2022-10-23T01:08:46;3.25;;;1.30;;
27612;SDS011;15036;48.094;-1.690;2022-10-23T01:14:11;3.75;;;1.10;;
27612;SDS011;15036;48.094;-1.690;2022-10-23T01:16:59;3.20;;;1.10;;
27612;SDS011;15036;48.094;-1.690;2022-10-23T01:22:15;3.53;;;1.20;;
27612;SDS011;15036;48.094;-1.690;2022-10-23T01:24:51;4.53;;;1.23;;
27612;SDS011;15036;48.094;-1.690;2022-10-23T01:27:25;3.42;;;1.17;;
27612;SDS011;15036;48.094;-1.690;2022-10-23T01:29:57;2.53;;;1.17;;
27612;SDS011;15036;48.094;-1.690;2022-10-23T01:33:12;2.97;;;1.27;;
27612;SDS011;15036;48.094;-1.690;2022-10-23T01:35:21;3.50;;;1.40;;
27612;SDS011;15036;48.094;-1.690;2022-10-23T01:37:52;3.88;;;1.40;;
27612;SDS011;15036;48.094;-1.690;2022-10-23T01:40:27;4.50;;;1.20;;
27612;SDS011;15036;48.094;-1.690;2022-10-23T01:43:13;4.53;;;1.48;;
27612;SDS011;15036;48.094;-1.690;2022-10-23T01:45:48;2.47;;;1.20;;
27612;SDS011;15036;48.094;-1.690;2022-10-23T01:48:18;3.08;;;1.38;;
27612;SDS011;15036;48.094;-1.690;2022-10-23T01:50:49;3.80;;;1.35;;
27612;SDS011;15036;48.094;-1.690;2022-10-23T01:53:16;3.72;;;1.30;;
27612;SDS011;15036;48.094;-1.690;2022-10-23T01:55:43;4.82;;;1.20;;
27612;SDS011;15036;48.094;-1.690;2022-10-23T01:58:10;3.28;;;1.30;;
27612;SDS011;15036;48.094;-1.690;2022-10-23T02:00:39;4.05;;;1.40;;
27612;SDS011;15036;48.094;-1.690;2022-10-23T02:03:06;3.95;;;1.38;;
27612;SDS011;15036;48.094;-1.690;2022-10-23T02:05:33;4.88;;;1.30;;
27612;SDS011;15036;48.094;-1.690;2022-10-23T02:07:59;3.15;;;1.35;;
27612;SDS011;15036;48.094;-1.690;2022-10-23T02:10:27;3.95;;;1.20;;
27612;SDS011;15036;48.094;-1.690;2022-10-23T02:13:02;4.43;;;1.50;;
27612;SDS011;15036;48.094;-1.690;2022-10-23T02:15:35;2.45;;;1.25;;
27612;SDS011;15036;48.094;-1.690;2022-10-23T02:18:10;4.65;;;1.40;;
27612;SDS011;15036;48.094;-1.690;2022-10-23T02:20:52;3.50;;;1.40;;
27612;SDS011;15036;48.094;-1.690;2022-10-23T02:23:21;2.63;;;1.25;;
27612;SDS011;15036;48.094;-1.690;2022-10-23T02:26:03;6.07;;;1.20;;
27612;SDS011;15036;48.094;-1.690;2022-10-23T02:28:35;3.05;;;1.35;;
27612;SDS011;15036;48.094;-1.690;2022-10-23T02:31:08;2.25;;;1.13;;
27612;SDS011;15036;48.094;-1.690;2022-10-23T02:33:36;2.63;;;1.10;;
27612;SDS011;15036;48.094;-1.690;2022-10-23T02:36:01;2.70;;;1.30;;
27612;SDS011;15036;48.094;-1.690;2022-10-23T02:38:48;4.63;;;1.30;;
27612;SDS011;15036;48.094;-1.690;2022-10-23T02:46:34;2.70;;;1.27;;
27612;SDS011;15036;48.094;-1.690;2022-10-23T02:52:17;4.32;;;1.33;;
27612;SDS011;15036;48.094;-1.690;2022-10-23T03:01:13;3.03;;;1.42;;
27612;SDS011;15036;48.094;-1.690;2022-10-23T03:03:41;3.30;;;1.33;;
27612;SDS011;15036;48.094;-1.690;2022-10-23T03:06:13;5.82;;;1.55;;
27612;SDS011;15036;48.094;-1.690;2022-10-23T03:08:48;4.30;;;1.40;;
27612;SDS011;15036;48.094;-1.690;2022-10-23T03:11:16;2.75;;;1.58;;
27612;SDS011;15036;48.094;-1.690;2022-10-23T03:13:42;4.15;;;1.27;;
27612;SDS011;15036;48.094;-1.690;2022-10-23T03:16:07;5.20;;;1.50;;
27612;SDS011;15036;48.094;-1.690;2022-10-23T03:18:32;5.00;;;1.52;;
27612;SDS011;15036;48.094;-1.690;2022-10-23T03:20:58;4.13;;;1.35;;
27612;SDS011;15036;48.094;-1.690;2022-10-23T03:23:23;6.03;;;1.55;;
27612;SDS011;15036;48.094;-1.690;2022-10-23T03:25:49;2.15;;;1.20;;
27612;SDS011;15036;48.094;-1.690;2022-10-23T03:28:14;4.97;;;1.60;;
27612;SDS011;15036;48.094;-1.690;2022-10-23T03:30:39;2.63;;;1.23;;
27612;SDS011;15036;48.094;-1.690;2022-10-23T03:33:05;3.70;;;1.20;;
27612;SDS011;15036;48.094;-1.690;2022-10-23T03:35:30;4.85;;;1.58;;
27612;SDS011;15036;48.094;-1.690;2022-10-23T03:37:55;4.60;;;1.70;;
27612;SDS011;15036;48.094;-1.690;2022-10-23T03:40:21;3.40;;;1.50;;
27612;SDS011;15036;48.094;-1.690;2022-10-23T03:42:46;4.75;;;1.70;;
27612;SDS011;15036;48.094;-1.690;2022-10-23T03:45:12;2.97;;;1.42;;
27612;SDS011;15036;48.094;-1.690;2022-10-23T03:47:37;4.07;;;1.80;;
27612;SDS011;15036;48.094;-1.690;2022-10-23T03:50:06;4.55;;;1.60;;
27612;SDS011;15036;48.094;-1.690;2022-10-23T03:52:32;3.80;;;1.60;;
27612;SDS011;15036;48.094;-1.690;2022-10-23T03:54:57;5.82;;;1.70;;
27612;SDS011;15036;48.094;-1.690;2022-10-23T03:57:23;4.53;;;1.90;;
27612;SDS011;15036;48.094;-1.690;2022-10-23T03:59:48;4.03;;;1.70;;
27612;SDS011;15036;48.094;-1.690;2022-10-23T04:02:14;3.70;;;1.58;;
27612;SDS011;15036;48.094;-1.690;2022-10-23T04:04:39;3.92;;;1.60;;
27612;SDS011;15036;48.094;-1.690;2022-10-23T04:07:04;3.75;;;1.45;;
27612;SDS011;15036;48.094;-1.690;2022-10-23T04:09:30;4.97;;;1.70;;
27612;SDS011;15036;48.094;-1.690;2022-10-23T04:11:55;4.88;;;1.80;;
27612;SDS011;15036;48.094;-1.690;2022-10-23T04:14:21;4.53;;;1.40;;
27612;SDS011;15036;48.094;-1.690;2022-10-23T04:16:46;4.47;;;1.60;;
27612;SDS011;15036;48.094;-1.690;2022-10-23T04:19:12;4.63;;;1.70;;
27612;SDS011;15036;48.094;-1.690;2022-10-23T04:21:37;4.75;;;1.70;;
27612;SDS011;15036;48.094;-1.690;2022-10-23T04:24:02;5.55;;;1.70;;
27612;SDS011;15036;48.094;-1.690;2022-10-23T04:26:28;3.60;;;1.50;;
27612;SDS011;15036;48.094;-1.690;2022-10-23T04:28:54;4.53;;;1.63;;
27612;SDS011;15036;48.094;-1.690;2022-10-23T04:31:19;4.90;;;1.67;;
27612;SDS011;15036;48.094;-1.690;2022-10-23T04:33:45;5.20;;;1.60;;
27612;SDS011;15036;48.094;-1.690;2022-10-23T04:36:10;3.63;;;1.50;;
27612;SDS011;15036;48.094;-1.690;2022-10-23T04:38:35;4.10;;;1.70;;
27612;SDS011;15036;48.094;-1.690;2022-10-23T04:41:01;4.57;;;1.50;;
27612;SDS011;15036;48.094;-1.690;2022-10-23T04:43:26;4.25;;;1.65;;
27612;SDS011;15036;48.094;-1.690;2022-10-23T04:45:51;4.90;;;1.60;;
27612;SDS011;15036;48.094;-1.690;2022-10-23T04:48:17;2.17;;;1.45;;
27612;SDS011;15036;48.094;-1.690;2022-10-23T04:50:42;3.90;;;1.60;;
27612;SDS011;15036;48.094;-1.690;2022-10-23T04:53:08;2.47;;;1.25;;
27612;SDS011;15036;48.094;-1.690;2022-10-23T04:55:33;2.90;;;1.60;;
27612;SDS011;15036;48.094;-1.690;2022-10-23T04:57:58;3.97;;;1.70;;
27612;SDS011;15036;48.094;-1.690;2022-10-23T05:00:24;3.28;;;1.80;;
27612;SDS011;15036;48.094;-1.690;2022-10-23T05:02:49;3.17;;;1.42;;
27612;SDS011;15036;48.094;-1.690;2022-10-23T05:05:15;3.25;;;1.60;;
27612;SDS011;15036;48.094;-1.690;2022-10-23T05:07:41;3.75;;;1.70;;
27612;SDS011;15036;48.094;-1.690;2022-10-23T05:10:06;5.22;;;1.60;;
27612;SDS011;15036;48.094;-1.690;2022-10-23T05:12:32;3.70;;;1.55;;
27612;SDS011;15036;48.094;-1.690;2022-10-23T05:14:57;3.70;;;1.77;;
27612;SDS011;15036;48.094;-1.690;2022-10-23T05:17:25;3.78;;;1.50;;
27612;SDS011;15036;48.094;-1.690;2022-10-23T05:19:56;4.03;;;1.70;;
27612;SDS011;15036;48.094;-1.690;2022-10-23T05:24:54;2.92;;;1.40;;
27612;SDS011;15036;48.094;-1.690;2022-10-23T05:27:20;3.90;;;1.70;;
27612;SDS011;15036;48.094;-1.690;2022-10-23T05:29:45;4.20;;;1.52;;
27612;SDS011;15036;48.094;-1.690;2022-10-23T05:32:11;3.10;;;1.45;;
27612;SDS011;15036;48.094;-1.690;2022-10-23T05:34:39;4.40;;;1.60;;
27612;SDS011;15036;48.094;-1.690;2022-10-23T05:37:06;5.50;;;1.90;;
27612;SDS011;15036;48.094;-1.690;2022-10-23T05:39:34;4.13;;;1.80;;
27612;SDS011;15036;48.094;-1.690;2022-10-23T05:42:00;4.43;;;1.58;;
27612;SDS011;15036;48.094;-1.690;2022-10-23T05:44:25;3.65;;;1.52;;
27612;SDS011;15036;48.094;-1.690;2022-10-23T05:46:51;3.70;;;1.67;;
27612;SDS011;15036;48.094;-1.690;2022-10-23T05:49:16;4.40;;;1.30;;
27612;SDS011;15036;48.094;-1.690;2022-10-23T05:51:41;4.68;;;1.40;;
27612;SDS011;15036;48.094;-1.690;2022-10-23T05:54:07;4.18;;;1.58;;
27612;SDS011;15036;48.094;-1.690;2022-10-23T05:56:33;2.85;;;1.60;;
27612;SDS011;15036;48.094;-1.690;2022-10-23T05:59:00;4.63;;;1.50;;
27612;SDS011;15036;48.094;-1.690;2022-10-23T06:01:25;4.15;;;1.55;;
27612;SDS011;15036;48.094;-1.690;2022-10-23T06:03:51;3.97;;;1.60;;
27612;SDS011;15036;48.094;-1.690;2022-10-23T06:06:16;3.08;;;1.52;;
27612;SDS011;15036;48.094;-1.690;2022-10-23T06:08:41;3.58;;;1.45;;
27612;SDS011;15036;48.094;-1.690;2022-10-23T06:11:08;4.85;;;1.90;;
27612;SDS011;15036;48.094;-1.690;2022-10-23T06:13:35;2.97;;;1.73;;
27612;SDS011;15036;48.094;-1.690;2022-10-23T06:16:20;3.53;;;1.70;;
27612;SDS011;15036;48.094;-1.690;2022-10-23T06:18:48;3.10;;;1.60;;
27612;SDS011;15036;48.094;-1.690;2022-10-23T06:21:14;3.55;;;1.60;;
27612;SDS011;15036;48.094;-1.690;2022-10-23T06:23:40;3.60;;;1.88;;
27612;SDS011;15036;48.094;-1.690;2022-10-23T06:26:08;4.07;;;1.63;;
27612;SDS011;15036;48.094;-1.690;2022-10-23T06:28:35;3.85;;;1.63;;
27612;SDS011;15036;48.094;-1.690;2022-10-23T06:31:04;3.85;;;1.50;;
27612;SDS011;15036;48.094;-1.690;2022-10-23T06:33:34;4.40;;;1.70;;
27612;SDS011;15036;48.094;-1.690;2022-10-23T06:36:00;2.78;;;1.63;;
27612;SDS011;15036;48.094;-1.690;2022-10-23T06:38:26;3.70;;;1.70;;
27612;SDS011;15036;48.094;-1.690;2022-10-23T06:40:52;3.78;;;1.52;;
27612;SDS011;15036;48.094;-1.690;2022-10-23T06:43:18;5.60;;;1.83;;
27612;SDS011;15036;48.094;-1.690;2022-10-23T06:45:43;4.25;;;1.45;;
27612;SDS011;15036;48.094;-1.690;2022-10-23T06:48:09;5.43;;;1.67;;
27612;SDS011;15036;48.094;-1.690;2022-10-23T06:50:35;4.95;;;1.80;;
27612;SDS011;15036;48.094;-1.690;2022-10-23T06:53:02;5.38;;;1.90;;
27612;SDS011;15036;48.094;-1.690;2022-10-23T06:55:29;4.53;;;1.67;;
27612;SDS011;15036;48.094;-1.690;2022-10-23T06:57:55;3.67;;;1.60;;
27612;SDS011;15036;48.094;-1.690;2022-10-23T07:00:21;3.95;;;1.70;;
27612;SDS011;15036;48.094;-1.690;2022-10-23T07:02:46;3.85;;;1.92;;
27612;SDS011;15036;48.094;-1.690;2022-10-23T07:05:12;3.72;;;1.58;;
27612;SDS011;15036;48.094;-1.690;2022-10-23T07:07:37;4.47;;;1.80;;
27612;SDS011;15036;48.094;-1.690;2022-10-23T07:10:03;7.35;;;2.05;;
27612;SDS011;15036;48.094;-1.690;2022-10-23T07:12:29;4.88;;;1.90;;
27612;SDS011;15036;48.094;-1.690;2022-10-23T07:14:54;6.63;;;1.70;;
27612;SDS011;15036;48.094;-1.690;2022-10-23T07:17:19;5.50;;;2.00;;
27612;SDS011;15036;48.094;-1.690;2022-10-23T07:19:45;5.60;;;2.20;;
27612;SDS011;15036;48.094;-1.690;2022-10-23T07:22:11;5.88;;;2.28;;
27612;SDS011;15036;48.094;-1.690;2022-10-23T07:24:36;4.53;;;2.03;;
27612;SDS011;15036;48.094;-1.690;2022-10-23T07:27:02;3.75;;;2.13;;
27612;SDS011;15036;48.094;-1.690;2022-10-23T07:29:28;4.88;;;2.20;;
27612;SDS011;15036;48.094;-1.690;2022-10-23T07:31:54;4.05;;;2.22;;
27612;SDS011;15036;48.094;-1.690;2022-10-23T07:34:19;4.57;;;2.20;;
27612;SDS011;15036;48.094;-1.690;2022-10-23T07:36:45;7.68;;;2.20;;
27612;SDS011;15036;48.094;-1.690;2022-10-23T07:39:10;3.92;;;1.90;;
27612;SDS011;15036;48.094;-1.690;2022-10-23T07:41:36;2.95;;;2.00;;
27612;SDS011;15036;48.094;-1.690;2022-10-23T07:44:01;5.78;;;1.98;;
27612;SDS011;15036;48.094;-1.690;2022-10-23T07:46:27;3.85;;;1.90;;
27612;SDS011;15036;48.094;-1.690;2022-10-23T07:48:52;3.42;;;1.95;;
27612;SDS011;15036;48.094;-1.690;2022-10-23T07:51:18;4.32;;;2.00;;
27612;SDS011;15036;48.094;-1.690;2022-10-23T07:53:43;6.70;;;2.30;;
27612;SDS011;15036;48.094;-1.690;2022-10-23T07:56:10;5.13;;;2.00;;
27612;SDS011;15036;48.094;-1.690;2022-10-23T07:58:38;4.65;;;1.98;;
27612;SDS011;15036;48.094;-1.690;2022-10-23T08:01:03;4.15;;;1.90;;
27612;SDS011;15036;48.094;-1.690;2022-10-23T08:03:37;4.70;;;2.28;;
27612;SDS011;15036;48.094;-1.690;2022-10-23T08:06:02;5.13;;;2.80;;
27612;SDS011;15036;48.094;-1.690;2022-10-23T08:08:28;5.00;;;2.53;;
27612;SDS011;15036;48.094;-1.690;2022-10-23T08:10:53;6.60;;;2.47;;
27612;SDS011;15036;48.094;-1.690;2022-10-23T08:13:20;5.05;;;2.78;;
27612;SDS011;15036;48.094;-1.690;2022-10-23T08:15:46;5.10;;;2.80;;
27612;SDS011;15036;48.094;-1.690;2022-10-23T08:18:14;4.80;;;2.67;;
27612;SDS011;15036;48.094;-1.690;2022-10-23T08:20:43;5.30;;;2.50;;
27612;SDS011;15036;48.094;-1.690;2022-10-23T08:23:11;6.72;;;2.75;;
27612;SDS011;15036;48.094;-1.690;2022-10-23T08:25:38;31.45;;;6.25;;
27612;SDS011;15036;48.094;-1.690;2022-10-23T08:28:04;7.43;;;3.38;;
27612;SDS011;15036;48.094;-1.690;2022-10-23T08:30:34;5.68;;;3.25;;
27612;SDS011;15036;48.094;-1.690;2022-10-23T08:33:04;8.52;;;3.60;;
27612;SDS011;15036;48.094;-1.690;2022-10-23T08:35:33;6.88;;;3.10;;
27612;SDS011;15036;48.094;-1.690;2022-10-23T08:38:00;7.23;;;2.90;;
27612;SDS011;15036;48.094;-1.690;2022-10-23T08:40:25;7.85;;;3.22;;
27612;SDS011;15036;48.094;-1.690;2022-10-23T08:45:25;5.88;;;3.00;;
27612;SDS011;15036;48.094;-1.690;2022-10-23T08:50:25;6.43;;;3.00;;
27612;SDS011;15036;48.094;-1.690;2022-10-23T08:55:34;8.18;;;3.13;;
27612;SDS011;15036;48.094;-1.690;2022-10-23T08:58:14;5.93;;;3.00;;
27612;SDS011;15036;48.094;-1.690;2022-10-23T09:00:47;7.68;;;3.30;;
27612;SDS011;15036;48.094;-1.690;2022-10-23T09:03:14;8.13;;;3.30;;
27612;SDS011;15036;48.094;-1.690;2022-10-23T09:08:58;7.95;;;3.35;;
27612;SDS011;15036;48.094;-1.690;2022-10-23T09:11:44;7.22;;;3.15;;
27612;SDS011;15036;48.094;-1.690;2022-10-23T09:17:21;8.50;;;3.45;;
27612;SDS011;15036;48.094;-1.690;2022-10-23T09:19:48;13.02;;;3.92;;
27612;SDS011;15036;48.094;-1.690;2022-10-23T09:22:18;10.48;;;4.07;;
27612;SDS011;15036;48.094;-1.690;2022-10-23T09:24:43;12.13;;;3.60;;
27612;SDS011;15036;48.094;-1.690;2022-10-23T09:27:12;8.23;;;3.90;;
27612;SDS011;15036;48.094;-1.690;2022-10-23T09:29:45;10.93;;;3.60;;
27612;SDS011;15036;48.094;-1.690;2022-10-23T09:32:16;9.38;;;3.60;;
27612;SDS011;15036;48.094;-1.690;2022-10-23T09:34:49;15.15;;;4.20;;
27612;SDS011;15036;48.094;-1.690;2022-10-23T09:39:48;12.10;;;3.88;;
27612;SDS011;15036;48.094;-1.690;2022-10-23T09:42:20;10.80;;;3.40;;
27612;SDS011;15036;48.094;-1.690;2022-10-23T09:44:49;14.05;;;3.60;;
27612;SDS011;15036;48.094;-1.690;2022-10-23T09:47:20;12.35;;;3.65;;
27612;SDS011;15036;48.094;-1.690;2022-10-23T09:49:56;13.10;;;4.07;;
27612;SDS011;15036;48.094;-1.690;2022-10-23T09:54:51;12.10;;;3.78;;
27612;SDS011;15036;48.094;-1.690;2022-10-23T09:58:01;10.13;;;3.63;;
27612;SDS011;15036;48.094;-1.690;2022-10-23T10:00:22;15.30;;;3.95;;
27612;SDS011;15036;48.094;-1.690;2022-10-23T10:05:51;12.25;;;3.90;;
27612;SDS011;15036;48.094;-1.690;2022-10-23T10:11:16;15.10;;;3.40;;
27612;SDS011;15036;48.094;-1.690;2022-10-23T10:16:43;12.80;;;3.22;;
27612;SDS011;15036;48.094;-1.690;2022-10-23T10:19:37;13.55;;;3.67;;
27612;SDS011;15036;48.094;-1.690;2022-10-23T10:22:25;13.93;;;3.40;;
27612;SDS011;15036;48.094;-1.690;2022-10-23T10:33:48;12.30;;;3.00;;
27612;SDS011;15036;48.094;-1.690;2022-10-23T10:36:40;14.32;;;2.40;;
27612;SDS011;15036;48.094;-1.690;2022-10-23T10:39:26;14.07;;;2.85;;
27612;SDS011;15036;48.094;-1.690;2022-10-23T10:42:25;10.75;;;3.00;;
27612;SDS011;15036;48.094;-1.690;2022-10-23T10:50:42;12.10;;;3.10;;
27612;SDS011;15036;48.094;-1.690;2022-10-23T10:56:14;11.60;;;2.72;;
27612;SDS011;15036;48.094;-1.690;2022-10-23T11:01:16;12.48;;;2.97;;
27612;SDS011;15036;48.094;-1.690;2022-10-23T11:04:25;9.45;;;2.97;;
27612;SDS011;15036;48.094;-1.690;2022-10-23T11:06:50;11.63;;;2.63;;
27612;SDS011;15036;48.094;-1.690;2022-10-23T11:09:24;12.55;;;2.67;;
27612;SDS011;15036;48.094;-1.690;2022-10-23T11:11:52;15.80;;;2.67;;
27612;SDS011;15036;48.094;-1.690;2022-10-23T11:14:18;15.45;;;2.85;;
27612;SDS011;15036;48.094;-1.690;2022-10-23T11:17:08;11.95;;;2.83;;
27612;SDS011;15036;48.094;-1.690;2022-10-23T11:19:36;11.55;;;2.67;;
27612;SDS011;15036;48.094;-1.690;2022-10-23T11:28:17;11.88;;;2.47;;
27612;SDS011;15036;48.094;-1.690;2022-10-23T11:31:06;8.98;;;2.47;;
27612;SDS011;15036;48.094;-1.690;2022-10-23T11:36:19;8.27;;;2.33;;
27612;SDS011;15036;48.094;-1.690;2022-10-23T11:39:16;9.60;;;2.17;;
27612;SDS011;15036;48.094;-1.690;2022-10-23T11:42:29;9.57;;;2.20;;
27612;SDS011;15036;48.094;-1.690;2022-10-23T11:44:46;9.82;;;2.30;;
27612;SDS011;15036;48.094;-1.690;2022-10-23T11:52:33;8.32;;;2.13;;
27612;SDS011;15036;48.094;-1.690;2022-10-23T11:55:18;9.85;;;2.47;;
27612;SDS011;15036;48.094;-1.690;2022-10-23T12:00:28;11.73;;;2.88;;
27612;SDS011;15036;48.094;-1.690;2022-10-23T12:02:54;12.38;;;2.92;;
27612;SDS011;15036;48.094;-1.690;2022-10-23T12:05:31;12.77;;;2.63;;
27612;SDS011;15036;48.094;-1.690;2022-10-23T12:08:00;11.88;;;2.95;;
27612;SDS011;15036;48.094;-1.690;2022-10-23T12:10:34;12.13;;;2.80;;
27612;SDS011;15036;48.094;-1.690;2022-10-23T12:16:11;17.33;;;3.03;;
27612;SDS011;15036;48.094;-1.690;2022-10-23T12:18:50;16.30;;;3.00;;
27612;SDS011;15036;48.094;-1.690;2022-10-23T12:21:18;17.95;;;3.53;;
27612;SDS011;15036;48.094;-1.690;2022-10-23T12:24:07;18.35;;;3.13;;
27612;SDS011;15036;48.094;-1.690;2022-10-23T12:40:10;7.28;;;1.80;;
27612;SDS011;15036;48.094;-1.690;2022-10-23T12:42:36;7.15;;;1.45;;
27612;SDS011;15036;48.094;-1.690;2022-10-23T12:47:54;7.28;;;1.65;;
27612;SDS011;15036;48.094;-1.690;2022-10-23T12:53:00;6.90;;;1.40;;
27612;SDS011;15036;48.094;-1.690;2022-10-23T12:55:29;7.50;;;1.88;;
27612;SDS011;15036;48.094;-1.690;2022-10-23T12:58:20;6.65;;;1.65;;
27612;SDS011;15036;48.094;-1.690;2022-10-23T13:00:53;5.30;;;1.38;;
27612;SDS011;15036;48.094;-1.690;2022-10-23T13:03:21;8.23;;;1.65;;
27612;SDS011;15036;48.094;-1.690;2022-10-23T13:05:49;8.52;;;1.50;;
27612;SDS011;15036;48.094;-1.690;2022-10-23T13:08:17;7.18;;;1.75;;
27612;SDS011;15036;48.094;-1.690;2022-10-23T13:10:44;6.78;;;1.40;;
27612;SDS011;15036;48.094;-1.690;2022-10-23T13:13:10;5.68;;;1.30;;
27612;SDS011;15036;48.094;-1.690;2022-10-23T13:15:39;6.13;;;1.40;;
27612;SDS011;15036;48.094;-1.690;2022-10-23T13:18:07;5.43;;;1.45;;
27612;SDS011;15036;48.094;-1.690;2022-10-23T13:20:37;8.10;;;1.42;;
27612;SDS011;15036;48.094;-1.690;2022-10-23T13:23:18;4.53;;;1.40;;
27612;SDS011;15036;48.094;-1.690;2022-10-23T13:25:52;5.97;;;1.58;;
27612;SDS011;15036;48.094;-1.690;2022-10-23T13:28:23;4.97;;;1.38;;
27612;SDS011;15036;48.094;-1.690;2022-10-23T13:33:46;8.05;;;1.80;;
27612;SDS011;15036;48.094;-1.690;2022-10-23T13:38:43;6.30;;;1.35;;
27612;SDS011;15036;48.094;-1.690;2022-10-23T13:41:11;6.43;;;1.30;;
27612;SDS011;15036;48.094;-1.690;2022-10-23T13:43:39;6.82;;;1.45;;
27612;SDS011;15036;48.094;-1.690;2022-10-23T13:46:10;6.55;;;1.63;;
27612;SDS011;15036;48.094;-1.690;2022-10-23T13:48:43;5.75;;;1.45;;
27612;SDS011;15036;48.094;-1.690;2022-10-23T13:51:14;6.45;;;1.92;;
27612;SDS011;15036;48.094;-1.690;2022-10-23T13:53:43;6.43;;;1.70;;
27612;SDS011;15036;48.094;-1.690;2022-10-23T13:56:10;7.10;;;1.23;;
27612;SDS011;15036;48.094;-1.690;2022-10-23T13:58:37;6.15;;;1.33;;
27612;SDS011;15036;48.094;-1.690;2022-10-23T14:01:04;4.38;;;1.20;;
27612;SDS011;15036;48.094;-1.690;2022-10-23T14:03:30;4.30;;;1.40;;
27612;SDS011;15036;48.094;-1.690;2022-10-23T14:05:56;5.38;;;1.30;;
27612;SDS011;15036;48.094;-1.690;2022-10-23T14:08:21;5.57;;;1.60;;
27612;SDS011;15036;48.094;-1.690;2022-10-23T14:10:47;4.20;;;1.05;;
27612;SDS011;15036;48.094;-1.690;2022-10-23T14:13:12;7.63;;;1.35;;
27612;SDS011;15036;48.094;-1.690;2022-10-23T14:15:38;4.35;;;1.40;;
27612;SDS011;15036;48.094;-1.690;2022-10-23T14:18:03;8.93;;;1.40;;
27612;SDS011;15036;48.094;-1.690;2022-10-23T14:20:29;6.55;;;1.40;;
27612;SDS011;15036;48.094;-1.690;2022-10-23T14:22:55;5.18;;;1.20;;
27612;SDS011;15036;48.094;-1.690;2022-10-23T14:25:21;6.93;;;1.50;;
27612;SDS011;15036;48.094;-1.690;2022-10-23T14:27:46;5.07;;;1.00;;
27612;SDS011;15036;48.094;-1.690;2022-10-23T14:30:12;3.40;;;1.38;;
27612;SDS011;15036;48.094;-1.690;2022-10-23T14:32:38;6.88;;;1.38;;
27612;SDS011;15036;48.094;-1.690;2022-10-23T14:35:03;7.22;;;1.50;;
27612;SDS011;15036;48.094;-1.690;2022-10-23T14:37:30;4.78;;;1.08;;
27612;SDS011;15036;48.094;-1.690;2022-10-23T14:39:55;9.23;;;1.48;;
27612;SDS011;15036;48.094;-1.690;2022-10-23T14:42:21;9.20;;;1.90;;
27612;SDS011;15036;48.094;-1.690;2022-10-23T14:44:47;6.80;;;1.25;;
27612;SDS011;15036;48.094;-1.690;2022-10-23T14:47:14;7.05;;;1.45;;
27612;SDS011;15036;48.094;-1.690;2022-10-23T14:49:39;7.75;;;1.40;;
27612;SDS011;15036;48.094;-1.690;2022-10-23T14:52:06;6.32;;;1.20;;
27612;SDS011;15036;48.094;-1.690;2022-10-23T14:54:32;5.50;;;1.27;;
27612;SDS011;15036;48.094;-1.690;2022-10-23T14:56:59;9.73;;;1.85;;
27612;SDS011;15036;48.094;-1.690;2022-10-23T14:59:24;6.57;;;1.55;;
27612;SDS011;15036;48.094;-1.690;2022-10-23T15:01:49;5.70;;;1.40;;
27612;SDS011;15036;48.094;-1.690;2022-10-23T15:04:15;8.60;;;1.45;;
27612;SDS011;15036;48.094;-1.690;2022-10-23T15:06:41;8.48;;;1.35;;
27612;SDS011;15036;48.094;-1.690;2022-10-23T15:09:06;7.32;;;1.63;;
27612;SDS011;15036;48.094;-1.690;2022-10-23T15:11:32;4.70;;;1.30;;
27612;SDS011;15036;48.094;-1.690;2022-10-23T15:13:58;5.13;;;1.38;;
27612;SDS011;15036;48.094;-1.690;2022-10-23T15:16:24;10.13;;;1.98;;
27612;SDS011;15036;48.094;-1.690;2022-10-23T15:18:50;8.43;;;1.70;;
27612;SDS011;15036;48.094;-1.690;2022-10-23T15:21:15;9.98;;;1.63;;
27612;SDS011;15036;48.094;-1.690;2022-10-23T15:23:41;10.32;;;1.60;;
27612;SDS011;15036;48.094;-1.690;2022-10-23T15:26:12;6.70;;;1.67;;
27612;SDS011;15036;48.094;-1.690;2022-10-23T15:28:46;10.25;;;1.88;;
27612;SDS011;15036;48.094;-1.690;2022-10-23T15:31:22;8.32;;;1.60;;
27612;SDS011;15036;48.094;-1.690;2022-10-23T15:34:08;8.18;;;1.90;;
27612;SDS011;15036;48.094;-1.690;2022-10-23T15:36:44;8.85;;;1.90;;
27612;SDS011;15036;48.094;-1.690;2022-10-23T15:39:11;7.22;;;1.88;;
27612;SDS011;15036;48.094;-1.690;2022-10-23T15:41:38;8.35;;;1.92;;
27612;SDS011;15036;48.094;-1.690;2022-10-23T15:44:05;11.57;;;2.20;;
27612;SDS011;15036;48.094;-1.690;2022-10-23T15:46:32;11.13;;;2.42;;
27612;SDS011;15036;48.094;-1.690;2022-10-23T15:48:58;10.43;;;2.28;;
27612;SDS011;15036;48.094;-1.690;2022-10-23T15:51:23;10.55;;;2.05;;
27612;SDS011;15036;48.094;-1.690;2022-10-23T15:53:49;7.78;;;2.00;;
27612;SDS011;15036;48.094;-1.690;2022-10-23T15:56:15;10.30;;;2.15;;
27612;SDS011;15036;48.094;-1.690;2022-10-23T15:58:40;10.93;;;2.63;;
27612;SDS011;15036;48.094;-1.690;2022-10-23T16:01:06;10.38;;;2.35;;
27612;SDS011;15036;48.094;-1.690;2022-10-23T16:03:34;12.25;;;2.50;;
27612;SDS011;15036;48.094;-1.690;2022-10-23T16:06:09;9.25;;;2.00;;
27612;SDS011;15036;48.094;-1.690;2022-10-23T16:08:36;9.43;;;2.80;;
27612;SDS011;15036;48.094;-1.690;2022-10-23T16:11:01;10.40;;;1.95;;
27612;SDS011;15036;48.094;-1.690;2022-10-23T16:13:28;9.68;;;2.13;;
27612;SDS011;15036;48.094;-1.690;2022-10-23T16:15:53;12.70;;;2.78;;
27612;SDS011;15036;48.094;-1.690;2022-10-23T16:18:19;11.25;;;2.40;;
27612;SDS011;15036;48.094;-1.690;2022-10-23T16:20:45;13.40;;;2.60;;
27612;SDS011;15036;48.094;-1.690;2022-10-23T16:23:11;7.35;;;2.15;;
27612;SDS011;15036;48.094;-1.690;2022-10-23T16:25:37;7.72;;;2.00;;
27612;SDS011;15036;48.094;-1.690;2022-10-23T16:28:03;8.50;;;2.05;;
27612;SDS011;15036;48.094;-1.690;2022-10-23T16:30:29;8.88;;;2.03;;
27612;SDS011;15036;48.094;-1.690;2022-10-23T16:32:55;9.20;;;1.88;;
27612;SDS011;15036;48.094;-1.690;2022-10-23T16:35:20;10.18;;;1.70;;
27612;SDS011;15036;48.094;-1.690;2022-10-23T16:37:46;8.75;;;2.20;;
27612;SDS011;15036;48.094;-1.690;2022-10-23T16:40:12;7.80;;;1.63;;
27612;SDS011;15036;48.094;-1.690;2022-10-23T16:42:37;7.55;;;2.03;;